Latest Weather Observations for Yeppoon

IDQ60801

Issued at 7:07 pm EST Tuesday 3 March 2015 (issued every 30 minutes, with the page automatically refreshed every 10 minutes)

About weather observations | Map of weather stations | Latest weather observations for QLD | Other Formats
Station Details ID: 033294 Name: YEPPOON THE ESPLANADE Lat: -23.14 Lon: 150.75 Height: 5.5 m
Data from the previous 72 hours. | See also: Recent months at Yeppoon
Date/Time
EST
Temp
°C
App
Temp
°C
Dew
Point
Rel
Hum
%
Delta-T
°C
Wind Press
QNH
hPa
Press
MSL
hPa
Rain
since 9 am
mm
Dir
 
Spd
km/h
Gust
km/h
Spd
kts
Gust
kts
03/07:00pm 26.7 26.5 21.3 72 3.6 E 24 32 13 17 1012.3 1012.3 0.0
03/06:30pm 26.7 26.0 21.1 71 3.7 E 26 32 14 17 1012.0 1012.0 0.0
03/06:00pm 27.1 27.4 21.6 72 3.7 E 22 28 12 15 1011.7 1011.7 0.0
03/05:30pm 27.5 27.3 21.3 69 4.1 E 24 28 13 15 1011.5 1011.5 0.0
03/05:00pm 27.1 27.5 22.5 76 3.1 ENE 24 28 13 15 1011.4 1011.4 0.0
03/04:30pm 27.8 28.2 22.5 73 3.6 E 24 30 13 16 1011.3 1011.3 0.0
03/04:00pm 28.0 27.4 21.9 69 4.1 E 28 32 15 17 1011.0 1011.0 0.0
03/03:30pm 28.0 28.0 22.4 71 3.8 E 26 33 14 18 1011.1 1011.1 0.0
03/03:00pm 28.1 28.2 22.6 72 3.7 E 26 33 14 18 1011.3 1011.3 0.0
03/02:30pm 28.6 29.1 22.6 70 4.1 E 24 30 13 16 1011.5 1011.5 0.0
03/02:00pm 28.4 29.1 22.3 69 4.1 E 22 30 12 16 1011.8 1011.8 0.0
03/01:30pm 28.6 28.9 22.2 68 4.3 E 24 32 13 17 1012.4 1012.4 0.0
03/01:00pm 28.7 29.7 22.2 68 4.4 E 20 28 11 15 1012.6 1012.6 0.0
03/12:30pm 28.5 28.6 21.8 67 4.5 ESE 24 32 13 17 1013.0 1013.0 0.0
03/12:00pm 28.6 28.8 21.4 65 4.8 ESE 22 33 12 18 1013.4 1013.4 0.0
03/11:30am 28.5 28.8 21.6 66 4.6 ESE 22 32 12 17 1013.8 1013.8 0.0
03/11:00am 28.8 29.4 22.1 67 4.5 ESE 22 32 12 17 1013.8 1013.8 0.0
03/10:30am 28.3 28.5 21.4 66 4.6 ESE 22 30 12 16 1014.2 1014.2 0.0
03/10:00am 28.3 28.5 21.4 66 4.6 SE 22 32 12 17 1014.2 1014.2 0.0
03/09:30am 27.8 28.7 22.0 70 3.9 SE 20 32 11 17 1014.1 1014.1 0.0
03/09:00am 27.6 28.4 21.8 70 3.9 SE 20 28 11 15 1014.0 1014.0 0.0
03/08:30am 27.2 27.6 21.8 72 3.6 SE 22 32 12 17 1013.7 1013.7 0.0
03/08:00am 26.8 27.5 21.5 72 3.5 SE 20 28 11 15 1013.5 1013.5 0.0
03/07:30am 26.3 26.6 21.6 75 3.1 SE 22 30 12 16 1013.2 1013.2 0.0
03/07:00am 25.7 27.4 21.6 78 2.7 SE 15 20 8 11 1012.9 1012.9 0.0
03/06:30am 24.8 26.8 21.6 82 2.1 SSE 13 19 7 10 1012.6 1012.6 0.0
03/06:00am 24.9 27.2 21.4 81 2.3 SSE 11 19 6 10 1012.5 1012.5 0.0
03/05:30am 25.3 26.8 21.2 78 2.7 SE 15 22 8 12 1012.2 1012.2 0.0
03/05:00am 25.6 27.0 21.1 76 3.0 SSE 15 24 8 13 1011.9 1011.9 0.0
03/04:30am 26.2 25.1 20.2 69 3.9 ESE 26 37 14 20 1011.7 1011.7 0.0
03/04:00am 26.3 25.4 19.8 67 4.2 ESE 24 35 13 19 1011.6 1011.6 0.0
03/03:30am 26.2 26.3 20.4 70 3.8 ESE 20 28 11 15 1011.4 1011.4 0.0
03/03:00am 26.2 25.6 20.4 70 3.8 ESE 24 37 13 20 1011.6 1011.6 0.0
03/02:30am 26.2 24.7 20.2 69 3.9 E 28 39 15 21 1011.6 1011.6 0.0
03/02:00am 26.2 24.6 20.1 69 4.0 E 28 41 15 22 1011.9 1011.9 0.0
03/01:30am 26.4 25.2 20.8 71 3.7 E 28 39 15 21 1012.2 1012.2 0.0
03/01:00am 26.4 24.3 19.8 67 4.3 E 30 39 16 21 1012.4 1012.4 0.0
03/12:30am 26.4 25.3 21.1 72 3.5 E 28 43 15 23 1012.5 1012.5 0.0
03/12:00am 26.3 24.9 21.2 73 3.4 E 30 43 16 23 1012.7 1012.7 0.0
 
Date/Time
EST
Temp
°C
App
Temp
°C
Dew
Point
Rel
Hum
%
Delta-T
°C
Wind Press
QNH
hPa
Press
MSL
hPa
Rain
since 9 am
mm
Dir
 
Spd
km/h
Gust
km/h
Spd
kts
Gust
kts
02/11:30pm 26.2 25.6 21.2 74 3.3 ESE 26 41 14 22 1012.8 1012.8 0.0
02/11:00pm 26.6 25.6 21.2 72 3.6 ESE 28 39 15 21 1012.8 1012.8 0.0
02/10:30pm 26.4 26.5 21.1 72 3.5 ESE 22 33 12 18 1012.6 1012.6 0.0
02/10:00pm 26.5 25.5 23.0 81 2.4 E 33 43 18 23 1012.3 1012.3 0.0
02/09:30pm 26.7 25.9 23.3 81 2.3 E 33 41 18 22 1012.1 1012.1 0.0
02/09:00pm 26.8 26.9 23.3 81 2.4 E 28 37 15 20 1012.0 1012.0 0.0
02/08:30pm 27.0 26.5 22.9 78 2.8 E 30 37 16 20 1011.8 1011.8 0.0
02/08:00pm 26.7 26.4 23.3 81 2.3 E 30 37 16 20 1011.5 1011.5 0.0
02/07:30pm 26.2 27.3 23.7 86 1.7 ENE 24 32 13 17 1011.0 1011.0 0.0
02/07:00pm 26.7 27.5 23.2 81 2.4 ENE 24 32 13 17 1011.0 1011.0 0.0
02/06:30pm 27.0 27.2 23.5 81 2.4 E 28 32 15 17 1010.6 1010.6 0.0
02/06:00pm 27.7 26.7 22.7 74 3.4 ENE 32 35 17 19 1010.2 1010.2 0.0
02/05:30pm 27.8 28.6 23.1 75 3.2 ENE 24 32 13 17 1009.9 1009.9 0.0
02/05:00pm 28.0 28.4 22.4 71 3.8 ENE 24 30 13 16 1009.5 1009.5 0.0
02/04:30pm 27.8 28.5 23.0 75 3.3 ENE 24 30 13 16 1009.0 1009.0 0.0
02/04:00pm 28.3 28.6 23.0 73 3.6 NE 26 32 14 17 1008.7 1008.7 0.0
02/03:30pm 28.8 29.7 23.4 72 3.7 NE 24 30 13 16 1008.7 1008.7 0.0
02/03:00pm 29.2 30.0 23.2 70 4.1 NE 24 28 13 15 1008.7 1008.7 0.0
02/02:30pm 29.1 30.0 22.6 68 4.4 NE 22 28 12 15 1008.8 1008.8 0.0
02/02:00pm 29.0 30.8 23.3 71 3.9 ENE 19 24 10 13 1009.1 1009.1 0.0
02/01:30pm 29.7 31.3 23.3 68 4.4 ENE 20 26 11 14 1009.5 1009.5 0.0
02/01:00pm 29.6 31.3 23.0 67 4.5 ENE 19 24 10 13 1009.9 1009.9 0.0
02/12:30pm 29.5 30.6 22.3 65 4.9 ENE 20 24 11 13 1010.2 1010.2 0.0
02/12:00pm 29.8 31.2 22.6 65 4.9 ENE 19 20 10 11 1010.3 1010.3 0.0
02/11:30am 29.6 30.5 21.9 63 5.2 E 20 28 11 15 1010.7 1010.7 0.0
02/11:00am 29.7 31.2 22.7 66 4.8 E 19 20 10 11 1010.9 1010.9 0.0
02/10:30am 29.7 32.0 22.8 66 4.7 E 15 19 8 10 1011.2 1011.2 0.0
02/10:00am 29.8 32.9 23.6 69 4.3 ENE 13 19 7 10 1011.3 1011.3 0.0
02/09:30am 28.4 31.2 23.0 72 3.7 ENE 13 15 7 8 1011.3 1011.3 0.0
02/09:00am 28.6 32.2 23.0 71 3.8 ENE 9 13 5 7 1011.3 1011.3 0.0
02/08:30am 25.9 29.6 24.6 92 0.9 E 13 17 7 9 1011.5 1011.5 0.0
02/08:00am 26.8 31.2 23.4 81 2.3 SSW 6 9 3 5 1011.0 1011.0 0.0
02/07:30am 25.6 29.8 23.2 86 1.6 WSW 6 7 3 4 1010.9 1010.9 0.0
02/07:00am 20.4 - - - - WSW 6 7 3 4 1010.6 1010.6 0.0
02/06:30am 16.9 - - - - W 9 11 5 6 1010.0 1010.0 0.0
02/06:00am 17.2 - - - - W 9 11 5 6 1009.6 1009.6 0.0
02/05:30am 15.8 - - - - W 7 9 4 5 1009.2 1009.2 0.0
02/05:00am 19.5 - - - - W 9 11 5 6 1008.8 1008.8 0.0
02/04:30am 18.1 - - - - W 9 11 5 6 1008.6 1008.6 0.0
02/04:13am 21.1 - - - - W 7 9 4 5 1008.5 1008.5 0.0
02/04:00am 16.1 - - - - W 9 11 5 6 1008.5 1008.5 0.0
02/03:30am 16.3 - - - - W 7 9 4 5 1008.4 1008.4 0.0
02/03:00am 16.8 - - - - W 7 9 4 5 1008.4 1008.4 0.0
02/02:30am 17.5 - - - - WSW 2 6 1 3 1008.7 1008.7 0.0
02/02:00am 18.2 - - - - NNW 7 13 4 7 1008.6 1008.6 0.0
02/01:30am 18.4 - - - - N 9 13 5 7 1008.9 1008.9 0.0
02/01:00am 18.8 - - - - N 11 15 6 8 1009.4 1009.4 0.0
02/12:30am 19.4 - - - - NNE 17 22 9 12 1009.5 1009.5 0.0
02/12:00am 19.4 - - - - NNE 17 20 9 11 1009.8 1009.8 0.0
 
Date/Time
EST
Temp
°C
App
Temp
°C
Dew
Point
Rel
Hum
%
Delta-T
°C
Wind Press
QNH
hPa
Press
MSL
hPa
Rain
since 9 am
mm
Dir
 
Spd
km/h
Gust
km/h
Spd
kts
Gust
kts
01/11:30pm 19.6 - - - - NNE 19 24 10 13 1009.7 1009.7 0.0
01/11:00pm 19.8 - - - - NE 20 26 11 14 1009.7 1009.7 0.0
01/10:56pm 19.7 - 23.3 - - NNE 20 26 11 14 1009.6 1009.6 0.0
01/10:30pm 26.7 28.3 23.2 81 2.4 NE 20 24 11 13 1009.9 1009.9 0.0
01/10:00pm 27.1 28.5 22.5 76 3.1 NE 19 22 10 12 1010.0 1010.0 0.0
01/09:30pm 27.1 28.4 22.4 75 3.2 NNE 19 24 10 13 1009.8 1009.8 0.0
01/09:00pm 27.1 28.0 22.0 73 3.4 NNE 20 24 11 13 1009.5 1009.5 0.0
01/08:30pm 27.3 28.6 22.7 76 3.1 NE 20 24 11 13 1009.2 1009.2 0.0
01/08:00pm 27.3 28.1 22.4 74 3.3 NNE 22 26 12 14 1008.8 1008.8 0.0
01/07:30pm 27.3 28.4 22.3 74 3.4 NE 20 26 11 14 1008.6 1008.6 0.0
01/07:00pm 27.4 28.6 22.2 73 3.5 NE 19 22 10 12 1008.3 1008.3 0.0
01/06:30pm 27.5 29.2 22.3 73 3.5 NE 17 20 9 11 1008.2 1008.2 0.0
01/06:00pm 27.8 29.1 21.7 69 4.1 NE 17 22 9 12 1008.0 1008.0 0.0
01/05:30pm 28.0 29.0 22.1 70 4.0 NE 20 24 11 13 1007.7 1007.7 0.0
01/05:00pm 28.2 28.9 21.6 67 4.4 NE 20 26 11 14 1007.6 1007.6 0.0
01/04:30pm 28.3 29.0 22.2 69 4.1 NE 22 26 12 14 1007.4 1007.4 0.0
01/04:00pm 28.5 29.2 21.5 66 4.7 ENE 20 26 11 14 1007.3 1007.3 0.0
01/03:30pm 28.5 29.3 22.5 70 4.1 NE 22 26 12 14 1007.3 1007.3 0.0
01/03:00pm 28.8 30.2 22.6 69 4.2 NE 19 22 10 12 1007.4 1007.4 0.0
01/02:30pm 28.8 30.6 22.5 68 4.3 ENE 17 22 9 12 1007.6 1007.6 0.0
01/02:00pm 29.1 31.1 22.3 66 4.6 NE 15 19 8 10 1008.1 1008.1 0.0
01/01:30pm 28.9 30.6 22.4 68 4.4 ENE 17 22 9 12 1008.3 1008.3 0.0
01/01:00pm 28.9 30.7 22.6 69 4.3 NE 17 22 9 12 1008.7 1008.7 0.0
01/12:30pm 29.2 31.5 22.7 68 4.4 ENE 15 20 8 11 1009.2 1009.2 0.0
01/12:00pm 29.4 31.2 22.6 67 4.6 ENE 17 20 9 11 1009.5 1009.5 0.0
01/11:30am 29.0 31.3 22.0 66 4.7 ENE 13 17 7 9 1009.9 1009.9 0.0
01/11:00am 29.1 31.9 23.0 69 4.2 ENE 13 17 7 9 1010.4 1010.4 0.0
01/10:30am 28.6 31.1 22.4 69 4.2 NE 13 17 7 9 1010.7 1010.7 0.0
01/10:00am 28.6 31.5 22.4 69 4.2 ENE 11 15 6 8 1010.7 1010.7 0.0
01/09:30am 28.3 31.0 22.1 69 4.2 ENE 11 15 6 8 1010.6 1010.6 0.0
01/09:00am 28.5 31.4 22.5 70 4.1 ENE 11 15 6 8 1010.5 1010.5 0.0
01/08:30am 28.1 30.9 22.3 70 3.9 ENE 11 15 6 8 1010.4 1010.4 0.0
01/08:00am 28.2 30.8 22.6 71 3.8 ENE 13 17 7 9 1010.1 1010.1 0.0
01/07:30am 27.9 29.9 22.3 71 3.8 ENE 15 19 8 10 1009.7 1009.7 0.0
01/07:00am 27.0 29.6 22.6 77 3.0 E 13 20 7 11 1009.5 1009.5 0.0
01/06:30am 26.3 28.2 22.1 77 2.8 ENE 15 19 8 10 1009.0 1009.0 0.0
01/06:00am 25.9 27.5 21.5 76 2.9 ENE 15 20 8 11 1008.8 1008.8 0.0
01/05:30am 25.9 27.5 22.2 80 2.5 ENE 17 20 9 11 1008.7 1008.7 0.0
01/05:00am 26.0 27.4 21.8 77 2.8 ENE 17 22 9 12 1008.4 1008.4 0.0
01/04:30am 26.1 27.5 21.9 77 2.8 NE 17 20 9 11 1008.1 1008.1 0.0
01/04:00am 26.2 27.3 22.3 79 2.6 NE 20 22 11 12 1008.0 1008.0 0.0
01/03:30am 26.1 27.9 22.5 80 2.4 NE 17 20 9 11 1008.1 1008.1 0.0
01/03:00am 26.1 28.5 22.9 82 2.2 ENE 15 20 8 11 1008.3 1008.3 0.0
01/02:30am 26.1 28.7 22.7 81 2.3 ENE 13 17 7 9 1008.5 1008.5 0.0
01/02:00am 26.2 28.9 22.8 81 2.3 ENE 13 17 7 9 1008.6 1008.6 0.0
01/01:30am 26.2 27.8 22.8 81 2.3 NE 19 24 10 13 1009.0 1009.0 0.0
01/01:00am 26.2 28.2 23.0 82 2.2 ENE 17 20 9 11 1009.3 1009.3 0.0
01/12:30am 26.2 27.6 22.8 81 2.3 ENE 20 24 11 13 1009.3 1009.3 0.0
01/12:00am 26.3 27.9 22.9 81 2.3 NE 19 24 10 13 1009.5 1009.5 0.0
 
Date/Time
EST
Temp
°C
App
Temp
°C
Dew
Point
Rel
Hum
%
Delta-T
°C
Wind Press
QNH
hPa
Press
MSL
hPa
Rain
since 9 am
mm
Dir
 
Spd
km/h
Gust
km/h
Spd
kts
Gust
kts
28/11:30pm 26.4 27.6 22.5 79 2.6 NE 20 26 11 14 1009.7 1009.7 0.0
28/11:00pm 26.5 27.6 22.3 78 2.8 NE 20 26 11 14 1010.1 1010.1 0.0
28/10:30pm 26.6 27.7 22.4 78 2.8 NE 20 26 11 14 1010.1 1010.1 0.0
28/10:00pm 26.8 27.7 22.7 78 2.8 NE 22 26 12 14 1010.2 1010.2 0.0
28/09:30pm 26.9 27.3 22.5 77 3.0 NE 24 30 13 16 1010.2 1010.2 0.0
28/09:00pm 26.8 27.2 22.5 77 2.9 NE 24 28 13 15 1010.1 1010.1 0.0
28/08:30pm 26.7 27.5 22.4 77 2.9 ENE 22 28 12 15 1009.8 1009.8 0.0
28/08:00pm 26.9 27.5 22.8 78 2.8 NE 24 30 13 16 1009.3 1009.3 0.0
28/07:30pm 26.9 27.2 22.3 76 3.1 ENE 24 30 13 16 1009.0 1009.0 0.0

Other Formats:

Comma delimited format used in spreadsheet applications
http://www.bom.gov.au/fwo/IDQ60801/IDQ60801.94373.axf

JavaScript Object Notation format (JSON) in row-major order
http://www.bom.gov.au/fwo/IDQ60801/IDQ60801.94373.json